In Rescue
 
Open Full Screen Window  High Contrast Mode
Wind Gusting 00 knots
04
August 09, 2020 7:38 PM EDT
Weather Information
Wind Direction
  180 °
Wind Speed
  04 kt (5 mph)
Wind Gust
  00 kt (0 mph)
Altimeter
30.02 in
Visibility
10 SM
Temperature
28° C
82° F
Dewpoint
21° C
70° F
Humidity
66%
1hr Rain Fall
00.00 in.
24hr Rain Fall
00.00 in.
Sky Condition
Overcast @ 12,000 ft
Broken @ 9,000 ft
Scattered @ 7,500 ft
VFR

METAR KJYM 092338Z AUTO 18004KT 10SM SCT075 BKN090 OVC120 28/21 A3002 RMK AO2 T02780210

FAA Disclaimer: The data displayed is for advisory purposes only and is not to be used for flight planning or operations.